Time;durP1;ratioP1;P1;durP2;ratioP2;P2;SDS_P1;SDS_P2;PMS_P1;PMS_P2;Temp;Humidity;BMP_temperature;BMP_pressure;BME280_temperature;BME280_humidity;BME280_pressure;Samples;Min_cycle;Max_cycle;Signal;HPM_P1;HPM_P2
2022/07/18 00:01:01;;;;;;;1.00;0.20;;;21.20;55.10;;;;;;4988250;28;20498;-87
2022/07/18 00:03:26;;;;;;;0.40;0.10;;;21.20;55.40;;;;;;4980323;28;20693;-88
2022/07/18 00:05:52;;;;;;;0.57;0.20;;;21.10;55.10;;;;;;4992481;28;20034;-87
2022/07/18 00:08:18;;;;;;;0.40;0.20;;;21.00;55.10;;;;;;4974950;28;20030;-87
2022/07/18 00:10:43;;;;;;;0.68;0.13;;;21.00;55.70;;;;;;4974252;28;20089;-87
2022/07/18 00:13:10;;;;;;;0.30;0.20;;;20.90;56.20;;;;;;4973176;28;20022;-88
2022/07/18 00:15:36;;;;;;;0.57;0.20;;;20.90;56.60;;;;;;4989737;28;20479;-87
2022/07/18 00:18:02;;;;;;;0.40;0.10;;;20.80;56.50;;;;;;4992503;28;20108;-87
2022/07/18 00:20:29;;;;;;;0.57;0.20;;;20.90;56.60;;;;;;4991449;28;20141;-87
2022/07/18 00:22:54;;;;;;;0.98;0.20;;;20.80;56.90;;;;;;4974633;28;20026;-87
2022/07/18 00:25:21;;;;;;;0.40;0.10;;;20.80;57.20;;;;;;4974443;28;20038;-87
2022/07/18 00:27:47;;;;;;;1.23;0.32;;;20.70;56.70;;;;;;4973684;28;20141;-87
2022/07/18 00:30:13;;;;;;;2.17;0.22;;;20.70;56.50;;;;;;4989340;28;20469;-88
2022/07/18 00:32:39;;;;;;;1.15;0.28;;;20.70;56.70;;;;;;4976075;28;20018;-87
2022/07/18 00:35:05;;;;;;;1.00;0.25;;;20.60;56.50;;;;;;4974997;28;20130;-87
2022/07/18 00:37:30;;;;;;;0.47;0.20;;;20.60;56.60;;;;;;4990428;28;20427;-87
2022/07/18 00:39:56;;;;;;;0.40;0.20;;;20.60;57.00;;;;;;4975596;28;20037;-87
2022/07/18 00:42:22;;;;;;;0.47;0.20;;;20.50;56.50;;;;;;4974029;28;20030;-87
2022/07/18 00:44:55;;;;;;;0.20;0.10;;;20.50;57.00;;;;;;4972936;28;20038;-87
2022/07/18 00:47:21;;;;;;;0.68;0.20;;;20.50;57.40;;;;;;4989925;28;20049;-87
2022/07/18 00:49:47;;;;;;;0.77;0.20;;;20.50;57.20;;;;;;4974674;28;20537;-87
2022/07/18 00:52:13;;;;;;;0.70;0.17;;;20.40;57.40;;;;;;4971550;28;20026;-87
2022/07/18 00:54:39;;;;;;;0.70;0.60;;;20.40;58.40;;;;;;4973347;28;20030;-87
2022/07/18 00:57:05;;;;;;;0.70;0.22;;;20.40;58.50;;;;;;4990910;28;20057;-87
2022/07/18 01:02:16;;;;;;;0.10;0.10;;;20.30;58.70;;;;;;4988449;28;20682;-87
2022/07/18 01:04:42;;;;;;;1.15;0.20;;;20.30;58.80;;;;;;4968558;28;20050;-87
2022/07/18 01:07:09;;;;;;;0.70;0.30;;;20.30;59.00;;;;;;4997425;23;20046;-84
2022/07/18 01:09:34;;;;;;;0.40;0.20;;;20.20;58.90;;;;;;5006813;28;20029;-84
2022/07/18 01:12:01;;;;;;;0.20;0.13;;;20.20;59.50;;;;;;4994468;28;20104;-85
2022/07/18 01:14:27;;;;;;;1.95;0.35;;;20.20;60.00;;;;;;4994453;28;20026;-85
2022/07/18 01:16:53;;;;;;;0.82;0.20;;;20.10;60.40;;;;;;4990498;28;20030;-84
2022/07/18 01:19:18;;;;;;;0.65;0.20;;;20.10;60.20;;;;;;5007943;28;20022;-84
2022/07/18 01:21:44;;;;;;;0.40;0.20;;;20.00;59.70;;;;;;4991940;28;20032;-85
2022/07/18 01:24:09;;;;;;;1.27;0.35;;;20.00;60.00;;;;;;5006532;28;20038;-85
2022/07/18 01:26:36;;;;;;;0.95;0.28;;;20.00;60.50;;;;;;5008999;28;20112;-85
2022/07/18 01:29:02;;;;;;;0.77;0.32;;;20.00;61.30;;;;;;4989627;28;20040;-85
2022/07/18 01:31:33;;;;;;;1.25;0.45;;;20.00;62.40;;;;;;5008717;28;20054;-85
2022/07/18 01:33:59;;;;;;;1.25;0.40;;;19.90;63.00;;;;;;5008522;28;20049;-86
2022/07/18 01:36:25;;;;;;;1.10;0.47;;;19.80;63.50;;;;;;4989686;28;20146;-85
2022/07/18 01:38:51;;;;;;;1.35;0.50;;;19.80;64.20;;;;;;5006951;28;20026;-85
2022/07/18 01:41:16;;;;;;;1.02;0.40;;;19.80;65.10;;;;;;4991116;28;20494;-84
2022/07/18 01:43:42;;;;;;;1.23;0.40;;;19.70;65.40;;;;;;5008940;28;20034;-84
2022/07/18 01:46:10;;;;;;;1.55;0.50;;;19.70;65.90;;;;;;4990283;28;20037;-85
2022/07/18 01:48:40;;;;;;;2.40;0.50;;;19.70;66.10;;;;;;5009096;28;20026;-84
2022/07/18 01:51:09;;;;;;;1.55;0.40;;;19.70;66.40;;;;;;4990319;28;20177;-85
2022/07/18 01:53:40;;;;;;;1.02;0.40;;;19.60;66.70;;;;;;5009191;28;20014;-85
2022/07/18 01:56:07;;;;;;;1.50;0.47;;;19.60;67.00;;;;;;4989588;28;20498;-85
2022/07/18 01:58:33;;;;;;;2.13;0.60;;;19.60;67.30;;;;;;5009969;28;20070;-85
2022/07/18 02:00:59;;;;;;;2.10;0.68;;;19.50;67.40;;;;;;5007182;28;20512;-85
2022/07/18 02:03:25;;;;;;;1.42;0.63;;;19.50;67.30;;;;;;5006810;28;20034;-84
2022/07/18 02:05:50;;;;;;;1.20;0.43;;;19.50;67.60;;;;;;4991159;28;20033;-85
2022/07/18 02:08:16;;;;;;;1.17;0.50;;;19.50;67.90;;;;;;5008442;28;20029;-84
2022/07/18 02:10:41;;;;;;;1.30;0.50;;;19.40;68.10;;;;;;5006177;28;20059;-85
2022/07/18 02:13:07;;;;;;;1.17;0.50;;;19.30;68.60;;;;;;4991293;28;20032;-85
2022/07/18 02:15:32;;;;;;;1.02;0.47;;;19.30;69.00;;;;;;5006333;28;20111;-84
2022/07/18 02:17:58;;;;;;;1.83;0.57;;;19.30;69.30;;;;;;5007184;28;20490;-84
2022/07/18 02:20:24;;;;;;;3.47;0.50;;;19.30;69.70;;;;;;5007731;28;20034;-85
2022/07/18 02:22:49;;;;;;;1.33;0.50;;;19.20;69.90;;;;;;4988550;28;20612;-85
2022/07/18 02:25:15;;;;;;;1.85;0.60;;;19.20;70.30;;;;;;4987766;28;20037;-85
2022/07/18 02:27:41;;;;;;;1.08;0.52;;;19.10;70.60;;;;;;5007950;28;20030;-85
2022/07/18 02:30:08;;;;;;;1.73;0.73;;;19.10;71.00;;;;;;4990765;28;20029;-84
2022/07/18 02:32:36;;;;;;;1.85;0.40;;;19.10;71.30;;;;;;5006967;28;20084;-85
2022/07/18 02:35:04;;;;;;;1.60;0.50;;;19.00;71.60;;;;;;4990431;28;20490;-85
2022/07/18 02:37:29;;;;;;;1.15;0.60;;;19.00;71.90;;;;;;4990574;28;20083;-85
2022/07/18 02:39:55;;;;;;;1.83;0.50;;;19.00;72.20;;;;;;5009118;28;20678;-84
2022/07/18 02:42:20;;;;;;;0.82;0.40;;;18.90;72.60;;;;;;4988304;28;20468;-85
2022/07/18 02:44:46;;;;;;;1.95;0.63;;;18.90;72.90;;;;;;5007236;28;20026;-85
2022/07/18 02:47:11;;;;;;;1.27;0.50;;;18.80;73.20;;;;;;4988441;28;20545;-85
2022/07/18 02:49:38;;;;;;;1.40;0.50;;;18.80;73.60;;;;;;5008630;28;20034;-84
2022/07/18 02:52:08;;;;;;;1.77;0.50;;;18.80;74.00;;;;;;5006207;28;20049;-85
2022/07/18 02:54:36;;;;;;;1.92;0.60;;;18.70;74.00;;;;;;4989395;28;20110;-85
2022/07/18 02:57:02;;;;;;;2.67;0.60;;;18.70;74.60;;;;;;4989429;28;20407;-84
2022/07/18 02:59:28;;;;;;;1.92;0.70;;;18.60;74.50;;;;;;4988356;28;20053;-84
2022/07/18 03:01:55;;;;;;;4.10;0.60;;;18.60;74.70;;;;;;5005824;28;20029;-85
2022/07/18 03:04:21;;;;;;;1.15;0.50;;;18.50;75.00;;;;;;5006493;28;20044;-85
2022/07/18 03:06:49;;;;;;;2.13;0.60;;;18.50;75.00;;;;;;4986793;28;20494;-84
2022/07/18 03:09:15;;;;;;;2.03;0.57;;;18.50;75.30;;;;;;5005569;28;20045;-85
2022/07/18 03:11:40;;;;;;;2.38;0.88;;;18.50;75.10;;;;;;4989280;28;20018;-84
2022/07/18 03:14:06;;;;;;;2.05;0.60;;;18.50;75.20;;;;;;4988059;28;20022;-84
2022/07/18 03:16:32;;;;;;;1.10;0.60;;;18.40;75.10;;;;;;4988679;28;20034;-83
2022/07/18 03:19:00;;;;;;;1.33;0.57;;;18.50;75.50;;;;;;4988746;28;20026;-85
2022/07/18 03:21:26;;;;;;;1.35;0.60;;;18.40;75.70;;;;;;5005078;28;20034;-85
2022/07/18 03:23:54;;;;;;;1.05;0.55;;;18.40;75.70;;;;;;5004556;28;20508;-85
2022/07/18 03:26:20;;;;;;;1.17;0.50;;;18.40;76.00;;;;;;5004518;28;20076;-84
2022/07/18 03:28:46;;;;;;;2.00;0.75;;;18.30;76.40;;;;;;4986112;28;20105;-85
2022/07/18 03:31:11;;;;;;;3.47;0.88;;;18.30;76.60;;;;;;4990560;28;20022;-85
2022/07/18 03:33:38;;;;;;;1.85;0.60;;;18.40;76.80;;;;;;5003165;28;20026;-85
2022/07/18 03:36:04;;;;;;;1.35;0.60;;;18.20;76.60;;;;;;4989131;28;20554;-84
2022/07/18 03:38:30;;;;;;;2.47;0.50;;;18.30;76.80;;;;;;4993011;28;20050;-85
2022/07/18 03:40:55;;;;;;;2.08;0.60;;;18.30;77.10;;;;;;4994057;28;20113;-84
2022/07/18 03:43:21;;;;;;;1.50;0.60;;;18.20;77.50;;;;;;4995873;28;20042;-84
2022/07/18 03:45:50;;;;;;;2.05;0.70;;;18.20;77.60;;;;;;4995462;28;20120;-84
2022/07/18 03:48:16;;;;;;;1.52;0.70;;;18.20;77.90;;;;;;4991739;28;20022;-84
2022/07/18 03:50:41;;;;;;;1.25;0.70;;;18.10;78.00;;;;;;4996309;28;20120;-84
2022/07/18 03:53:07;;;;;;;2.03;0.50;;;18.20;77.80;;;;;;5013782;28;20018;-84
2022/07/18 03:55:33;;;;;;;1.52;0.60;;;18.10;78.10;;;;;;5010778;28;20037;-84
2022/07/18 03:57:58;;;;;;;1.50;0.57;;;18.10;78.40;;;;;;5013207;28;20413;-84
2022/07/18 04:00:24;;;;;;;1.02;0.65;;;18.10;78.60;;;;;;4995887;28;20026;-84
2022/07/18 04:02:50;;;;;;;2.60;0.80;;;18.10;78.80;;;;;;4993450;28;20761;-84
2022/07/18 04:05:16;;;;;;;1.65;0.60;;;18.10;78.60;;;;;;4995673;28;20513;-84
2022/07/18 04:07:42;;;;;;;2.38;0.80;;;18.10;79.00;;;;;;5012284;28;20083;-85
2022/07/18 04:10:09;;;;;;;1.45;0.68;;;18.10;79.20;;;;;;4996086;28;20702;-84
2022/07/18 04:12:34;;;;;;;1.83;0.70;;;18.00;79.40;;;;;;4994508;28;20138;-84
2022/07/18 04:15:02;;;;;;;1.60;0.70;;;18.20;79.80;;;;;;4993477;28;20306;-85
2022/07/18 04:17:28;;;;;;;1.30;0.70;;;18.00;79.90;;;;;;4991780;28;20030;-84
2022/07/18 04:19:53;;;;;;;1.48;0.77;;;18.00;80.70;;;;;;5012098;28;20506;-84
2022/07/18 04:22:19;;;;;;;1.70;0.50;;;18.00;81.00;;;;;;5012393;28;20032;-85
2022/07/18 04:24:44;;;;;;;2.45;0.68;;;18.00;81.00;;;;;;5011571;28;20093;-85
2022/07/18 04:27:11;;;;;;;1.35;0.70;;;17.90;81.00;;;;;;4993200;28;20602;-83
2022/07/18 04:29:37;;;;;;;1.35;0.63;;;17.90;81.40;;;;;;5012652;28;20106;-84
2022/07/18 04:32:03;;;;;;;1.15;0.50;;;17.80;80.10;;;;;;5011538;28;20144;-84
2022/07/18 04:34:29;;;;;;;0.88;0.40;;;17.80;80.60;;;;;;4994582;28;20033;-84
2022/07/18 04:36:57;;;;;;;1.65;0.80;;;17.70;79.50;;;;;;4994973;28;20030;-84
2022/07/18 04:39:23;;;;;;;1.15;0.60;;;17.70;79.00;;;;;;5013646;28;20037;-84
2022/07/18 04:41:48;;;;;;;4.20;0.60;;;17.70;79.10;;;;;;4995608;28;20037;-85
2022/07/18 04:44:14;;;;;;;1.27;0.65;;;17.70;79.30;;;;;;5013717;28;20018;-84
2022/07/18 04:46:40;;;;;;;1.30;0.68;;;17.70;79.50;;;;;;5014518;28;20120;-84
2022/07/18 04:49:05;;;;;;;2.65;0.52;;;17.80;80.70;;;;;;4996973;28;20018;-84
2022/07/18 04:51:31;;;;;;;2.80;0.70;;;17.90;80.00;;;;;;5007423;28;20022;-84
2022/07/18 04:53:57;;;;;;;2.17;0.60;;;18.00;79.60;;;;;;4994593;28;20384;-83
2022/07/18 04:56:23;;;;;;;2.08;0.70;;;18.00;79.50;;;;;;4995559;28;20060;-84
2022/07/18 04:58:48;;;;;;;1.88;0.80;;;18.00;80.00;;;;;;5013111;28;20042;-84
2022/07/18 05:01:14;;;;;;;5.28;0.80;;;18.10;79.90;;;;;;5007258;28;20026;-84
2022/07/18 05:03:40;;;;;;;2.00;0.82;;;18.10;80.00;;;;;;4993584;28;20529;-85
2022/07/18 05:06:06;;;;;;;1.58;0.57;;;18.30;79.90;;;;;;5010435;28;20026;-84
2022/07/18 05:08:33;;;;;;;1.33;0.70;;;18.30;79.60;;;;;;4990996;28;20032;-82
2022/07/18 05:10:59;;;;;;;1.95;0.63;;;18.40;79.20;;;;;;4993488;28;20033;-86
2022/07/18 05:13:24;;;;;;;2.63;0.75;;;18.50;79.90;;;;;;4986055;28;20741;-83
2022/07/18 05:15:50;;;;;;;2.42;0.70;;;18.70;80.00;;;;;;5000749;28;20045;-84
2022/07/18 05:18:16;;;;;;;3.47;1.00;;;18.70;79.30;;;;;;4992101;28;20036;-84
2022/07/18 05:20:42;;;;;;;2.25;0.70;;;18.80;79.20;;;;;;5011163;28;20030;-83
2022/07/18 05:23:08;;;;;;;2.17;0.70;;;18.70;79.40;;;;;;5006555;28;20030;-83
2022/07/18 05:25:34;;;;;;;1.15;0.52;;;18.80;79.10;;;;;;4988731;28;20390;-83
2022/07/18 05:27:59;;;;;;;2.78;0.77;;;18.90;79.20;;;;;;4989318;28;20028;-83
2022/07/18 05:30:25;;;;;;;1.40;0.68;;;19.00;79.00;;;;;;4991005;28;20029;-83
2022/07/18 05:32:52;;;;;;;1.92;0.60;;;19.10;78.60;;;;;;5008575;28;20076;-83
2022/07/18 05:35:17;;;;;;;1.98;0.60;;;19.20;78.80;;;;;;4988921;28;20029;-84
2022/07/18 05:37:44;;;;;;;2.10;0.70;;;19.30;79.00;;;;;;5008901;28;20083;-84
2022/07/18 05:40:12;;;;;;;1.17;0.60;;;19.40;78.70;;;;;;5009163;28;20034;-84
2022/07/18 05:42:38;;;;;;;2.10;0.80;;;19.40;78.70;;;;;;4985045;28;20026;-85
2022/07/18 05:45:04;;;;;;;2.50;0.80;;;19.60;78.50;;;;;;4984360;28;20303;-84
2022/07/18 05:47:30;;;;;;;2.60;0.90;;;19.60;78.60;;;;;;5000417;28;20021;-84
2022/07/18 05:49:56;;;;;;;1.90;0.85;;;19.60;78.70;;;;;;4991219;28;20029;-84
2022/07/18 05:52:22;;;;;;;2.42;0.70;;;19.60;78.80;;;;;;5002573;28;20018;-85
2022/07/18 05:54:48;;;;;;;2.25;0.73;;;19.40;79.30;;;;;;5009027;28;20014;-84
2022/07/18 05:57:14;;;;;;;1.95;0.60;;;19.40;79.40;;;;;;5005892;28;20093;-84
2022/07/18 05:59:39;;;;;;;1.45;0.70;;;19.40;79.30;;;;;;5000173;28;20474;-85
2022/07/18 06:02:05;;;;;;;2.20;0.80;;;19.50;79.30;;;;;;5007707;28;20033;-83
2022/07/18 06:04:30;;;;;;;1.92;0.60;;;19.80;79.10;;;;;;5003571;28;20426;-82
2022/07/18 06:06:56;;;;;;;2.17;0.65;;;19.90;78.70;;;;;;4988841;28;20060;-83
2022/07/18 06:09:22;;;;;;;1.42;0.60;;;20.10;78.50;;;;;;4981943;28;20050;-83
2022/07/18 06:11:48;;;;;;;2.13;0.60;;;20.10;78.50;;;;;;5006464;28;20026;-83
2022/07/18 06:14:14;;;;;;;1.85;0.52;;;20.20;78.80;;;;;;4989607;28;20029;-83
2022/07/18 06:16:39;;;;;;;1.92;0.60;;;20.30;78.50;;;;;;4999760;28;20084;-83
2022/07/18 06:19:06;;;;;;;2.83;0.73;;;20.40;78.00;;;;;;5001144;28;20025;-83
2022/07/18 06:21:33;;;;;;;1.33;0.63;;;20.40;77.30;;;;;;4996396;28;20024;-83
2022/07/18 06:23:59;;;;;;;1.67;0.60;;;20.40;75.90;;;;;;4987854;28;20041;-84
2022/07/18 06:26:24;;;;;;;1.45;0.50;;;20.60;75.10;;;;;;4984567;28;20021;-84
2022/07/18 06:28:51;;;;;;;2.65;0.55;;;20.70;74.10;;;;;;4990811;28;20037;-83
2022/07/18 06:31:19;;;;;;;1.67;0.60;;;20.80;74.30;;;;;;4985668;28;20033;-82
2022/07/18 06:33:46;;;;;;;2.75;0.82;;;21.00;73.30;;;;;;4982420;28;20033;-83
2022/07/18 06:36:13;;;;;;;2.20;0.70;;;21.00;73.80;;;;;;4988284;28;20022;-84
2022/07/18 06:38:40;;;;;;;1.70;0.60;;;21.20;73.00;;;;;;4989132;28;20042;-83
2022/07/18 06:41:07;;;;;;;2.25;0.65;;;21.30;73.00;;;;;;5007963;28;20068;-84
2022/07/18 06:43:35;;;;;;;2.75;0.93;;;21.40;71.90;;;;;;5004312;28;20019;-84
2022/07/18 06:46:00;;;;;;;2.15;0.70;;;21.20;69.80;;;;;;4991580;28;20033;-83
2022/07/18 06:48:26;;;;;;;1.80;0.50;;;21.30;71.40;;;;;;4989831;28;20026;-83
2022/07/18 06:50:52;;;;;;;1.42;0.65;;;21.10;71.00;;;;;;4985173;28;20029;-85
2022/07/18 06:53:18;;;;;;;2.00;0.57;;;21.10;71.30;;;;;;5010251;28;20049;-83
2022/07/18 06:55:44;;;;;;;1.88;0.52;;;21.20;70.50;;;;;;4993199;28;20057;-85
2022/07/18 06:58:09;;;;;;;1.65;0.60;;;21.20;70.90;;;;;;4991246;28;20027;-83
2022/07/18 07:00:35;;;;;;;2.50;0.75;;;21.30;70.50;;;;;;5006488;28;20014;-85
2022/07/18 07:03:01;;;;;;;1.13;0.57;;;21.40;71.80;;;;;;4991070;28;20505;-85
2022/07/18 07:05:27;;;;;;;1.33;0.55;;;21.40;71.20;;;;;;4988709;28;20038;-85
2022/07/18 07:07:57;;;;;;;1.65;0.50;;;21.50;71.40;;;;;;5011760;23;20041;-88
2022/07/18 07:10:23;;;;;;;2.60;0.80;;;21.60;71.40;;;;;;5012458;28;20033;-88
2022/07/18 07:12:51;;;;;;;3.92;0.52;;;21.80;71.70;;;;;;5006207;28;20113;-88
2022/07/18 07:15:21;;;;;;;3.33;0.80;;;21.70;71.40;;;;;;5011296;28;20037;-85
2022/07/18 07:18:19;;;;;;;2.25;0.55;;;21.80;72.30;;;;;;5005465;28;20030;-91
2022/07/18 07:21:15;;;;;;;1.65;0.60;;;22.10;72.10;;;;;;4966036;28;20041;-92
2022/07/18 07:23:44;;;;;;;2.30;0.40;;;22.40;70.90;;;;;;4988352;28;20091;-89
2022/07/18 07:26:10;;;;;;;2.38;0.70;;;22.80;70.90;;;;;;5008203;28;20037;-89
2022/07/18 07:28:36;;;;;;;1.13;0.50;;;23.00;70.70;;;;;;4990587;28;20029;-90
2022/07/18 07:31:01;;;;;;;1.45;0.70;;;23.20;70.40;;;;;;4993795;28;20033;-90
2022/07/18 07:33:27;;;;;;;1.13;0.57;;;23.30;70.20;;;;;;4981752;28;20087;-89
2022/07/18 07:35:53;;;;;;;1.52;0.60;;;23.40;69.70;;;;;;4991000;28;20409;-89
2022/07/18 07:38:27;;;;;;;1.60;0.70;;;23.60;69.10;;;;;;4992694;28;20041;-89
2022/07/18 07:40:57;;;;;;;1.55;0.70;;;23.70;68.30;;;;;;4992244;28;20033;-90
2022/07/18 07:43:24;;;;;;;2.65;0.75;;;23.90;69.10;;;;;;4986142;28;20033;-90
2022/07/18 07:45:55;;;;;;;1.40;0.60;;;24.10;69.30;;;;;;4990127;28;20398;-90
2022/07/18 07:48:21;;;;;;;;;;;24.20;68.40;;;;;;4992366;28;20018;-89
2022/07/18 07:50:47;;;;;;;1.15;0.47;;;24.30;68.00;;;;;;4987669;28;19920;-89
2022/07/18 07:53:17;;;;;;;1.65;0.63;;;24.30;67.60;;;;;;4990213;28;20429;-90
2022/07/18 07:55:42;;;;;;;1.65;0.60;;;24.30;67.70;;;;;;4991264;28;20026;-89
2022/07/18 07:58:10;;;;;;;1.83;0.60;;;24.30;65.80;;;;;;4991135;28;20037;-88
2022/07/18 08:00:37;;;;;;;3.28;0.90;;;24.30;66.80;;;;;;4992104;28;20577;-90
2022/07/18 08:03:05;;;;;;;1.30;0.60;;;24.60;66.40;;;;;;4992280;28;20075;-89
2022/07/18 08:05:33;;;;;;;1.63;0.50;;;24.90;65.50;;;;;;5008458;28;20117;-89
2022/07/18 08:08:00;;;;;;;1.25;0.50;;;25.10;64.50;;;;;;5006416;28;20026;-89
2022/07/18 08:10:27;;;;;;;1.40;0.63;;;25.30;64.10;;;;;;4991397;28;20050;-89
2022/07/18 08:12:54;;;;;;;1.23;0.40;;;25.40;64.70;;;;;;4993183;28;20076;-89
2022/07/18 08:15:20;;;;;;;1.08;0.32;;;25.50;63.50;;;;;;4990811;28;20121;-89
2022/07/18 08:17:45;;;;;;;3.20;0.50;;;25.50;58.50;;;;;;5004618;28;20116;-89
2022/07/18 08:20:11;;;;;;;0.85;0.50;;;25.60;59.20;;;;;;4990384;28;20030;-89
2022/07/18 08:22:59;;;;;;;0.70;0.40;;;25.70;60.90;;;;;;4992963;28;20049;-90
2022/07/18 08:25:29;;;;;;;1.40;0.60;;;25.80;61.00;;;;;;5010869;28;20104;-90
2022/07/18 08:27:56;;;;;;;1.48;0.40;;;26.00;59.10;;;;;;4978790;28;20111;-91
2022/07/18 08:30:22;;;;;;;0.73;0.43;;;26.20;58.10;;;;;;4992986;28;20022;-90
2022/07/18 08:33:06;;;;;;;1.33;0.50;;;26.40;58.30;;;;;;4992011;28;20026;-90
2022/07/18 08:35:33;;;;;;;0.70;0.38;;;26.00;58.50;;;;;;4981846;28;20050;-90
2022/07/18 08:38:01;;;;;;;1.02;0.35;;;26.20;59.60;;;;;;4997085;28;20072;-90
2022/07/18 08:40:29;;;;;;;1.15;0.45;;;26.40;59.70;;;;;;5008814;28;20030;-90
2022/07/18 08:42:58;;;;;;;1.13;0.50;;;26.60;59.30;;;;;;5008381;28;20430;-90
2022/07/18 08:45:50;;;;;;;1.17;0.50;;;26.80;60.70;;;;;;4995884;28;20038;-89
2022/07/18 08:48:17;;;;;;;0.90;0.50;;;26.80;60.10;;;;;;4994224;28;20041;-90
2022/07/18 08:51:01;;;;;;;1.73;0.43;;;27.20;60.10;;;;;;4985262;28;20022;-91
2022/07/18 08:53:33;;;;;;;0.85;0.30;;;27.50;59.80;;;;;;4991762;28;20363;-90
2022/07/18 08:56:03;;;;;;;3.58;0.68;;;27.70;58.90;;;;;;4987029;28;20418;-90
2022/07/18 08:58:29;;;;;;;1.73;0.43;;;27.80;58.70;;;;;;4996056;28;20049;-90
2022/07/18 09:00:57;;;;;;;2.13;0.35;;;27.90;57.80;;;;;;4992444;28;20022;-90
2022/07/18 09:03:26;;;;;;;1.95;0.60;;;28.00;58.10;;;;;;4991377;28;20030;-89
2022/07/18 09:06:10;;;;;;;0.77;0.40;;;28.30;57.80;;;;;;4990213;28;20034;-89
2022/07/18 09:08:38;;;;;;;1.55;0.60;;;28.40;57.30;;;;;;4987624;28;20027;-90
2022/07/18 09:11:09;;;;;;;0.82;0.40;;;28.30;57.70;;;;;;4998255;28;20302;-90
2022/07/18 09:13:36;;;;;;;0.75;0.35;;;28.60;57.20;;;;;;4988936;28;20099;-90
2022/07/18 09:16:11;;;;;;;0.93;0.35;;;28.70;57.60;;;;;;4994959;28;20029;-90
2022/07/18 09:18:43;;;;;;;5.20;1.05;;;29.00;57.20;;;;;;4988298;28;20026;-90
2022/07/18 09:21:17;;;;;;;1.27;0.50;;;28.60;55.10;;;;;;5012724;28;20505;-90
2022/07/18 09:23:48;;;;;;;1.15;0.57;;;28.40;55.10;;;;;;4984598;28;20032;-89
2022/07/18 09:26:33;;;;;;;;;;;28.60;55.10;;;;;;4994494;28;20057;-89
2022/07/18 09:29:00;;;;;;;1.20;0.40;;;28.80;55.80;;;;;;4995736;28;19914;-90
2022/07/18 09:31:28;;;;;;;0.70;0.40;;;28.80;53.70;;;;;;4994300;28;20072;-89
2022/07/18 09:33:55;;;;;;;0.73;0.40;;;28.80;54.90;;;;;;4990391;28;20401;-89
2022/07/18 09:36:21;;;;;;;1.27;0.30;;;29.00;53.70;;;;;;4994707;28;20474;-90
2022/07/18 09:38:46;;;;;;;0.90;0.47;;;29.40;54.40;;;;;;4993829;28;20052;-89
2022/07/18 09:41:12;;;;;;;1.27;0.50;;;29.60;55.10;;;;;;5009070;28;20034;-89
2022/07/18 09:43:44;;;;;;;0.57;0.30;;;29.70;53.40;;;;;;4996675;28;20026;-90
2022/07/18 09:46:09;;;;;;;0.80;0.40;;;29.70;52.20;;;;;;4996161;28;20030;-89
2022/07/18 09:48:41;;;;;;;1.08;0.50;;;29.70;51.40;;;;;;5006979;28;20136;-89
2022/07/18 09:51:07;;;;;;;1.20;0.40;;;30.10;53.50;;;;;;4983406;28;20513;-89
2022/07/18 09:53:41;;;;;;;0.63;0.25;;;29.80;51.20;;;;;;5000965;28;20026;-89
2022/07/18 09:56:10;;;;;;;0.95;0.38;;;30.10;52.30;;;;;;4985153;28;20030;-90
2022/07/18 09:58:38;;;;;;;1.08;0.40;;;30.10;50.40;;;;;;4989832;28;20075;-89
2022/07/18 10:01:06;;;;;;;0.63;0.30;;;30.20;50.80;;;;;;5011700;28;20025;-88
2022/07/18 10:03:32;;;;;;;0.80;0.30;;;30.30;52.00;;;;;;5010334;28;20060;-89
2022/07/18 10:06:00;;;;;;;1.20;0.40;;;30.50;50.90;;;;;;4992879;28;20501;-89
2022/07/18 10:08:29;;;;;;;0.95;0.40;;;30.60;50.50;;;;;;5007355;28;20030;-90
2022/07/18 10:10:59;;;;;;;0.63;0.32;;;31.00;51.00;;;;;;4976158;28;20055;-89
2022/07/18 10:13:27;;;;;;;0.90;0.40;;;31.40;49.80;;;;;;5000428;28;20145;-89
2022/07/18 10:15:53;;;;;;;2.35;0.77;;;31.40;49.30;;;;;;4988007;28;20041;-89
2022/07/18 10:18:21;;;;;;;1.55;0.80;;;31.30;49.30;;;;;;4984212;28;20030;-89
2022/07/18 10:21:14;;;;;;;0.65;0.30;;;31.50;51.60;;;;;;4984497;28;20038;-90
2022/07/18 10:23:43;;;;;;;1.00;0.43;;;31.40;49.90;;;;;;4979539;28;20562;-90
2022/07/18 10:26:24;;;;;;;0.77;0.50;;;31.70;51.00;;;;;;4984771;28;20033;-88
2022/07/18 10:29:20;;;;;;;0.50;0.30;;;31.60;50.00;;;;;;5004230;28;20022;-89
2022/07/18 10:32:03;;;;;;;1.30;0.40;;;31.60;50.60;;;;;;5001124;28;20044;-90
2022/07/18 10:34:35;;;;;;;1.15;0.50;;;31.60;49.80;;;;;;4987965;28;20133;-89
2022/07/18 10:37:06;;;;;;;0.50;0.30;;;31.70;50.20;;;;;;4992447;28;20073;-90
2022/07/18 10:39:37;;;;;;;2.55;0.80;;;31.90;49.30;;;;;;4980690;28;20044;-89
2022/07/18 10:42:03;;;;;;;1.15;0.50;;;32.00;48.40;;;;;;4993307;28;20044;-90
2022/07/18 10:44:31;;;;;;;0.85;0.38;;;32.00;47.80;;;;;;5007116;28;20418;-90
2022/07/18 10:47:03;;;;;;;0.90;0.38;;;32.00;47.00;;;;;;4990882;28;20041;-90
2022/07/18 10:49:50;;;;;;;1.13;0.50;;;32.20;48.10;;;;;;5010112;28;20018;-89
2022/07/18 10:52:25;;;;;;;2.25;0.40;;;32.00;48.60;;;;;;5007716;28;20429;-90
2022/07/18 10:55:03;;;;;;;0.75;0.30;;;31.90;46.20;;;;;;4990472;28;20023;-90
2022/07/18 10:57:30;;;;;;;0.60;0.30;;;31.90;46.70;;;;;;4982759;28;20014;-90
2022/07/18 11:00:10;;;;;;;0.63;0.40;;;32.10;46.10;;;;;;4992657;28;20037;-90
2022/07/18 11:02:47;;;;;;;1.08;0.30;;;32.10;47.30;;;;;;4988543;28;20081;-89
2022/07/18 11:05:25;;;;;;;0.90;0.30;;;32.40;46.60;;;;;;4989241;28;20057;-90
2022/07/18 11:08:02;;;;;;;1.77;0.30;;;32.10;47.30;;;;;;4991154;28;20080;-90
2022/07/18 11:10:44;;;;;;;0.95;0.30;;;32.10;46.80;;;;;;4991543;28;20446;-90
2022/07/18 11:13:25;;;;;;;0.98;0.40;;;32.10;46.30;;;;;;4977671;28;20282;-90
2022/07/18 11:16:19;;;;;;;1.45;0.40;;;32.50;47.10;;;;;;5005584;28;20080;-89
2022/07/18 11:18:44;;;;;;;3.35;1.42;;;32.60;46.50;;;;;;5005642;28;20521;-89
2022/07/18 11:21:18;;;;;;;3.30;0.70;;;32.90;47.20;;;;;;4988853;28;20033;-90
2022/07/18 11:23:47;;;;;;;0.77;0.30;;;33.30;46.50;;;;;;4990063;28;20057;-89
2022/07/18 11:26:19;;;;;;;0.68;0.40;;;33.30;45.80;;;;;;5009489;28;20509;-89
2022/07/18 11:28:48;;;;;;;0.20;0.10;;;33.40;46.10;;;;;;4992578;28;20030;-89
2022/07/18 11:31:15;;;;;;;0.52;0.20;;;33.50;44.70;;;;;;4991435;28;20029;-90
2022/07/18 11:33:46;;;;;;;1.48;0.47;;;33.80;45.70;;;;;;5010703;28;20076;-90
2022/07/18 11:36:22;;;;;;;0.52;0.30;;;34.00;45.00;;;;;;5007411;28;20014;-89
2022/07/18 11:38:53;;;;;;;0.38;0.20;;;34.30;45.30;;;;;;5006218;28;20034;-88
2022/07/18 11:41:21;;;;;;;1.55;0.30;;;34.30;45.10;;;;;;5009201;28;20026;-91
2022/07/18 11:43:49;;;;;;;0.77;0.40;;;33.80;44.60;;;;;;4992539;28;20048;-90
2022/07/18 11:46:17;;;;;;;0.60;0.20;;;33.80;45.50;;;;;;5013665;28;20014;-91
2022/07/18 11:48:46;;;;;;;0.85;0.25;;;33.30;45.70;;;;;;4997696;28;20493;-91
2022/07/18 11:51:14;;;;;;;0.68;0.32;;;33.30;46.40;;;;;;5004932;28;20028;-90
2022/07/18 11:53:53;;;;;;;0.68;0.30;;;33.30;46.20;;;;;;4988752;28;20483;-91
2022/07/18 11:56:21;;;;;;;1.02;0.30;;;33.70;45.60;;;;;;4990789;28;20030;-91
2022/07/18 11:59:39;;;;;;;1.70;0.50;;;33.60;44.40;;;;;;4991677;28;20103;-91
2022/07/18 12:02:13;;;;;;;1.25;0.30;;;33.60;46.30;;;;;;4970221;28;20033;-91
2022/07/18 12:04:54;;;;;;;0.77;0.30;;;33.90;46.30;;;;;;4991108;28;20156;-90
2022/07/18 12:10:24;;;;;;;0.45;0.25;;;34.50;45.80;;;;;;5002122;28;20091;-90
2022/07/18 12:12:49;;;;;;;0.98;0.30;;;34.70;44.40;;;;;;4992450;28;20117;-88
2022/07/18 12:15:18;;;;;;;0.63;0.30;;;35.00;44.50;;;;;;5009852;28;20418;-90
2022/07/18 12:17:47;;;;;;;1.70;0.30;;;35.00;44.00;;;;;;5008539;28;20026;-90
2022/07/18 12:20:47;;;;;;;;;;;;;;;;;;;;;
2022/07/18 12:23:30;;;;;;;0.75;0.20;;;35.40;41.80;;;;;;5011508;28;20028;-91
2022/07/18 12:26:12;;;;;;;0.70;0.28;;;35.40;42.90;;;;;;4982595;28;20038;-91
2022/07/18 12:28:38;;;;;;;0.50;0.20;;;35.20;42.30;;;;;;5010848;28;20046;-90
2022/07/18 12:31:04;;;;;;;0.82;0.30;;;35.20;41.10;;;;;;4993418;28;20061;-89
2022/07/18 12:33:29;;;;;;;0.63;0.20;;;34.90;41.20;;;;;;4994043;28;20390;-90
2022/07/18 12:36:01;;;;;;;0.65;0.20;;;35.10;42.00;;;;;;5009099;28;20049;-90
2022/07/18 12:38:27;;;;;;;0.43;0.20;;;35.10;41.80;;;;;;4987022;28;20568;-90
2022/07/18 12:40:58;;;;;;;0.75;0.30;;;35.40;41.90;;;;;;5011030;28;20079;-89
2022/07/18 12:43:28;;;;;;;0.95;0.30;;;35.60;42.10;;;;;;4993567;28;20522;-90
2022/07/18 12:45:56;;;;;;;0.90;0.30;;;35.80;42.50;;;;;;4990088;28;20026;-89
2022/07/18 12:48:27;;;;;;;1.00;0.40;;;36.00;42.60;;;;;;4990720;28;20034;-91
2022/07/18 12:51:04;;;;;;;;;;;36.20;42.70;;;;;;4988083;28;20029;-90
2022/07/18 12:53:55;;;;;;;0.68;0.30;;;36.40;41.60;;;;;;5010358;28;20413;-91
2022/07/18 12:56:33;;;;;;;0.63;0.32;;;36.80;41.70;;;;;;5011488;28;20100;-91
2022/07/18 12:59:29;;;;;;;1.70;0.30;;;36.90;42.70;;;;;;4989459;28;20068;-91
2022/07/18 13:01:59;;;;;;;1.05;0.43;;;37.10;43.40;;;;;;5009749;28;20034;-91